createdAt,value
2023-05-09T00:02:30.124Z,72.54
2023-05-09T00:05:02.798Z,72.56
2023-05-09T00:07:31.888Z,72.32
2023-05-09T00:10:10.779Z,71.87
2023-05-09T00:13:00.993Z,72.33
2023-05-09T00:15:42.124Z,72.67
2023-05-09T00:18:30.724Z,72.96
2023-05-09T00:21:11.912Z,72.69
2023-05-09T00:24:04.050Z,73.00
2023-05-09T00:26:52.624Z,73.23
2023-05-09T00:29:44.015Z,73.14
2023-05-09T00:32:53.317Z,73.42
2023-05-09T00:35:41.959Z,73.21
2023-05-09T00:38:26.610Z,72.50
2023-05-09T00:40:58.325Z,72.25
2023-05-09T00:44:10.227Z,71.50
2023-05-09T00:46:49.182Z,71.17
2023-05-09T00:49:27.777Z,70.73
2023-05-09T00:51:57.209Z,70.77
2023-05-09T00:54:25.696Z,70.63
2023-05-09T00:56:54.449Z,70.77
2023-05-09T00:59:27.646Z,70.52
2023-05-09T01:01:56.216Z,70.54
2023-05-09T01:04:25.054Z,70.39
2023-05-09T01:07:07.745Z,70.12
2023-05-09T01:09:41.874Z,70.00
2023-05-09T01:12:17.001Z,70.04
2023-05-09T01:15:21.711Z,69.88
2023-05-09T01:18:06.757Z,69.93
2023-05-09T01:20:57.789Z,69.98
2023-05-09T01:23:59.165Z,70.05
2023-05-09T01:27:06.209Z,70.48
2023-05-09T01:29:44.949Z,69.78
2023-05-09T01:32:21.682Z,69.42
2023-05-09T01:34:53.052Z,69.16
2023-05-09T01:37:32.468Z,68.91
2023-05-09T01:40:17.167Z,68.74
2023-05-09T01:42:51.283Z,68.42
2023-05-09T01:45:20.919Z,68.20
2023-05-09T01:47:50.534Z,68.59
2023-05-09T01:50:21.880Z,69.03
2023-05-09T01:53:09.081Z,68.93
2023-05-09T01:55:41.863Z,68.62
2023-05-09T01:58:11.593Z,68.69
2023-05-09T02:00:43.150Z,68.73
2023-05-09T02:03:14.752Z,68.99
2023-05-09T02:05:45.205Z,69.03
2023-05-09T02:08:29.684Z,68.50
2023-05-09T02:11:00.631Z,68.55
2023-05-09T02:13:32.258Z,68.31
2023-05-09T02:16:01.320Z,68.35
2023-05-09T02:18:34.332Z,68.48
2023-05-09T02:21:05.199Z,68.53
2023-05-09T02:23:33.447Z,68.32
2023-05-09T02:26:02.650Z,68.15
2023-05-09T02:28:31.856Z,67.96
2023-05-09T02:31:02.284Z,67.83
2023-05-09T02:33:32.901Z,67.64
2023-05-09T02:36:01.826Z,67.86
2023-05-09T02:38:32.848Z,67.97
2023-05-09T02:41:01.314Z,67.85
2023-05-09T02:43:29.800Z,67.77
2023-05-09T02:45:58.209Z,67.68
2023-05-09T02:48:26.461Z,67.71
2023-05-09T02:51:00.992Z,67.64
2023-05-09T02:53:29.560Z,67.65
2023-05-09T02:55:58.639Z,67.95
2023-05-09T02:58:26.765Z,67.99
2023-05-09T03:00:55.083Z,68.01
2023-05-09T03:03:23.707Z,68.22
2023-05-09T03:05:55.372Z,68.51
2023-05-09T03:08:32.629Z,68.99
2023-05-09T03:11:01.547Z,68.97
2023-05-09T03:13:30.222Z,69.09
2023-05-09T03:15:58.766Z,69.46
2023-05-09T03:18:27.079Z,69.92
2023-05-09T03:20:55.982Z,70.23
2023-05-09T03:23:32.443Z,70.53
2023-05-09T03:26:03.384Z,70.45
2023-05-09T03:28:31.732Z,70.69
2023-05-09T03:31:02.293Z,70.73
2023-05-09T03:33:31.376Z,70.76
2023-05-09T03:35:59.849Z,70.83
2023-05-09T03:38:28.482Z,70.55
2023-05-09T03:40:57.133Z,70.11
2023-05-09T03:43:25.618Z,70.59
2023-05-09T03:45:54.510Z,70.79
2023-05-09T03:48:24.798Z,71.04
2023-05-09T03:51:04.500Z,71.04
2023-05-09T03:53:54.072Z,70.90
2023-05-09T03:56:30.260Z,70.87
2023-05-09T03:59:01.867Z,70.65
2023-05-09T04:01:56.890Z,70.55
2023-05-09T04:04:26.349Z,70.84
2023-05-09T04:07:20.944Z,71.23
2023-05-09T04:10:03.589Z,71.55
2023-05-09T04:12:34.624Z,71.55
2023-05-09T04:15:43.350Z,71.84
2023-05-09T04:18:25.142Z,72.20
2023-05-09T04:21:18.331Z,71.89
2023-05-09T04:24:33.099Z,72.02
2023-05-09T04:27:33.297Z,71.58
2023-05-09T04:31:01.192Z,71.28
2023-05-09T04:33:43.686Z,71.50
2023-05-09T04:36:27.918Z,71.58
2023-05-09T04:39:11.262Z,71.26
2023-05-09T04:41:43.842Z,70.85
2023-05-09T04:44:12.287Z,70.81
2023-05-09T04:46:40.999Z,70.63
2023-05-09T04:49:09.342Z,70.44
2023-05-09T04:51:38.094Z,70.01
2023-05-09T04:54:16.555Z,69.41
2023-05-09T04:57:03.169Z,69.03
2023-05-09T04:59:35.884Z,68.92
2023-05-09T05:02:04.674Z,68.48
2023-05-09T05:04:33.859Z,68.03
2023-05-09T05:07:02.458Z,67.82
2023-05-09T05:09:33.511Z,67.29
2023-05-09T05:12:09.809Z,66.79
2023-05-09T05:14:38.623Z,66.16
2023-05-09T05:17:18.455Z,65.69
2023-05-09T05:20:15.137Z,65.27
2023-05-09T05:22:46.641Z,64.91
2023-05-09T05:25:22.756Z,64.85
2023-05-09T05:27:53.484Z,64.33
2023-05-09T05:30:23.196Z,64.26
2023-05-09T05:32:57.030Z,63.83
2023-05-09T05:35:30.462Z,62.86
2023-05-09T05:37:59.089Z,62.08
2023-05-09T05:40:27.359Z,61.82
2023-05-09T05:43:01.395Z,62.12
2023-05-09T05:45:31.242Z,61.79
2023-05-09T05:48:02.792Z,61.59
2023-05-09T05:50:32.046Z,61.26
2023-05-09T05:53:02.075Z,61.10
2023-05-09T05:55:30.842Z,61.05
2023-05-09T05:58:31.118Z,61.11
2023-05-09T06:01:14.611Z,60.49
2023-05-09T06:03:46.350Z,60.67
2023-05-09T06:06:14.450Z,60.53
2023-05-09T06:08:43.316Z,60.27
2023-05-09T06:11:39.552Z,59.84
2023-05-09T06:14:10.739Z,59.15
2023-05-09T06:16:39.468Z,59.02
2023-05-09T06:19:08.183Z,58.58
2023-05-09T06:21:37.315Z,57.97
2023-05-09T06:24:19.853Z,57.98
2023-05-09T06:26:56.566Z,57.22
2023-05-09T06:29:28.673Z,57.22
2023-05-09T06:32:25.029Z,57.50
2023-05-09T06:34:56.145Z,57.52
2023-05-09T06:37:24.445Z,57.74
2023-05-09T06:39:53.022Z,57.40
2023-05-09T06:42:36.242Z,57.56
2023-05-09T06:45:27.776Z,57.57
2023-05-09T06:48:14.360Z,57.62
2023-05-09T06:51:05.888Z,57.30
2023-05-09T06:53:45.490Z,56.88
2023-05-09T06:56:13.837Z,56.74
2023-05-09T06:58:42.277Z,56.73
2023-05-09T07:01:10.880Z,56.58
2023-05-09T07:03:52.135Z,56.56
2023-05-09T07:06:29.541Z,56.61
2023-05-09T07:08:58.021Z,55.90
2023-05-09T07:11:36.843Z,56.06
2023-05-09T07:14:07.805Z,55.44
2023-05-09T07:16:37.596Z,55.36
2023-05-09T07:19:06.111Z,55.32
2023-05-09T07:21:34.462Z,55.08
2023-05-09T07:24:03.143Z,54.75
2023-05-09T07:26:31.322Z,54.20
2023-05-09T07:29:20.409Z,52.18
2023-05-09T07:31:58.934Z,51.52
2023-05-09T07:35:07.620Z,50.62
2023-05-09T07:37:36.111Z,50.59
2023-05-09T07:40:06.196Z,49.33
2023-05-09T07:42:37.270Z,48.38
2023-05-09T07:45:08.630Z,47.91
2023-05-09T07:47:36.863Z,47.71
2023-05-09T07:50:05.545Z,47.02
2023-05-09T07:52:34.069Z,46.84
2023-05-09T07:55:12.417Z,46.75
2023-05-09T07:57:41.055Z,46.82
2023-05-09T08:00:10.793Z,46.23
2023-05-09T08:02:41.889Z,46.13
2023-05-09T08:05:14.121Z,46.31
2023-05-09T08:07:52.802Z,45.61
2023-05-09T08:10:22.909Z,45.26
2023-05-09T08:12:51.460Z,44.44
2023-05-09T08:15:22.748Z,45.22
2023-05-09T08:18:14.477Z,45.23
2023-05-09T08:21:54.016Z,45.51
2023-05-09T08:24:51.830Z,44.77
2023-05-09T08:27:31.285Z,44.98
2023-05-09T08:30:02.489Z,44.51
2023-05-09T08:32:51.317Z,43.95
2023-05-09T08:35:34.063Z,44.27
2023-05-09T08:38:11.451Z,44.56
2023-05-09T08:40:45.055Z,44.19
2023-05-09T08:43:16.203Z,44.39
2023-05-09T08:46:04.803Z,44.06
2023-05-09T08:48:42.295Z,43.56
2023-05-09T08:51:21.608Z,43.72
2023-05-09T08:53:50.568Z,44.31
2023-05-09T08:56:24.507Z,44.11
2023-05-09T08:58:57.914Z,43.86
2023-05-09T09:01:27.712Z,44.25
2023-05-09T09:04:16.914Z,43.89
2023-05-09T09:06:46.588Z,44.47
2023-05-09T09:09:16.504Z,44.81
2023-05-09T09:11:45.983Z,44.40
2023-05-09T09:14:48.926Z,43.64
2023-05-09T09:17:20.690Z,43.17
2023-05-09T09:20:15.388Z,43.55
2023-05-09T09:22:48.237Z,43.63
2023-05-09T09:25:16.616Z,43.80
2023-05-09T09:27:47.534Z,43.95
2023-05-09T09:30:16.789Z,44.41
2023-05-09T09:32:45.467Z,43.75
2023-05-09T09:35:14.135Z,42.78
2023-05-09T09:37:43.972Z,41.97
2023-05-09T09:40:14.560Z,42.33
2023-05-09T09:42:45.640Z,42.45
2023-05-09T09:45:17.148Z,42.00
2023-05-09T09:47:48.117Z,42.07
2023-05-09T09:50:23.545Z,42.48
2023-05-09T09:52:55.390Z,42.60
2023-05-09T09:55:25.276Z,42.02
2023-05-09T09:57:54.311Z,41.02
2023-05-09T10:00:27.709Z,40.56
2023-05-09T10:02:58.463Z,40.71
2023-05-09T10:05:34.590Z,40.63
2023-05-09T10:08:07.665Z,40.08
2023-05-09T10:10:37.797Z,39.53
2023-05-09T10:13:12.483Z,39.67
2023-05-09T10:15:53.102Z,39.07
2023-05-09T10:18:28.789Z,38.94
2023-05-09T10:21:03.888Z,38.05
2023-05-09T10:23:37.081Z,38.48
2023-05-09T10:26:16.812Z,39.51
2023-05-09T10:28:48.943Z,39.13
2023-05-09T10:31:28.361Z,38.93
2023-05-09T10:33:57.320Z,39.59
2023-05-09T10:36:26.182Z,40.26
2023-05-09T10:38:55.700Z,40.20
2023-05-09T10:41:26.542Z,39.67
2023-05-09T10:43:59.322Z,39.86
2023-05-09T10:46:28.060Z,40.35
2023-05-09T10:48:57.238Z,40.37
2023-05-09T10:51:27.450Z,40.51
2023-05-09T10:53:56.326Z,39.76
2023-05-09T10:56:29.730Z,39.32
2023-05-09T10:58:59.413Z,39.15
2023-05-09T11:01:38.974Z,39.55
2023-05-09T11:04:12.974Z,38.62
2023-05-09T11:06:45.668Z,37.26
2023-05-09T11:09:28.227Z,37.69
2023-05-09T11:11:58.721Z,37.54
2023-05-09T11:14:40.756Z,37.57
2023-05-09T11:17:14.237Z,36.80
2023-05-09T11:19:45.755Z,37.02
2023-05-09T11:22:28.253Z,37.48
2023-05-09T11:25:04.984Z,37.75
2023-05-09T11:27:39.932Z,37.87
2023-05-09T11:30:09.848Z,38.11
2023-05-09T11:32:48.503Z,38.71
2023-05-09T11:35:20.364Z,38.61
2023-05-09T11:38:06.507Z,38.11
2023-05-09T11:40:35.659Z,38.16
2023-05-09T11:43:03.885Z,37.74
2023-05-09T11:45:36.016Z,37.73
2023-05-09T11:48:09.560Z,37.59
2023-05-09T11:50:38.108Z,36.65
2023-05-09T11:53:19.183Z,36.63
2023-05-09T11:55:47.753Z,36.98
2023-05-09T11:58:16.142Z,37.00
2023-05-09T12:01:05.798Z,37.04
2023-05-09T12:03:46.135Z,37.26
2023-05-09T12:06:30.142Z,37.53
2023-05-09T12:09:00.751Z,37.49
2023-05-09T12:11:32.338Z,37.93
2023-05-09T12:14:03.660Z,38.10
2023-05-09T12:16:32.281Z,38.10
2023-05-09T12:19:13.878Z,38.32
2023-05-09T12:21:42.411Z,38.85
2023-05-09T12:24:41.072Z,38.58
2023-05-09T12:27:33.160Z,38.14
2023-05-09T12:30:02.174Z,37.61
2023-05-09T12:32:59.871Z,37.37
2023-05-09T12:35:30.950Z,37.79
2023-05-09T12:38:23.494Z,37.65
2023-05-09T12:41:03.982Z,38.04
2023-05-09T12:43:41.733Z,38.27
2023-05-09T12:46:13.136Z,38.29
2023-05-09T12:48:51.920Z,38.68
2023-05-09T12:51:31.091Z,38.96
2023-05-09T12:54:19.154Z,39.25
2023-05-09T12:57:07.580Z,39.44
2023-05-09T12:59:36.381Z,39.97
2023-05-09T13:02:04.659Z,39.58
2023-05-09T13:05:15.065Z,39.00
2023-05-09T13:07:48.921Z,38.60
2023-05-09T13:10:26.457Z,38.98
2023-05-09T13:12:55.379Z,38.52
2023-05-09T13:15:24.333Z,37.82
2023-05-09T13:17:53.390Z,37.74
2023-05-09T13:20:21.684Z,37.96
2023-05-09T13:22:50.411Z,37.67
2023-05-09T13:25:20.462Z,37.78
2023-05-09T13:27:52.086Z,37.37
2023-05-09T13:30:20.408Z,37.04
2023-05-09T13:32:52.469Z,36.76
2023-05-09T13:35:21.380Z,36.36
2023-05-09T13:37:49.853Z,36.73
2023-05-09T13:40:18.134Z,37.18
2023-05-09T13:42:49.162Z,37.20
2023-05-09T13:45:20.464Z,37.03
2023-05-09T13:47:48.620Z,37.24
2023-05-09T13:50:17.517Z,37.28
2023-05-09T13:52:46.756Z,37.83
2023-05-09T13:55:14.963Z,38.00
2023-05-09T13:57:43.342Z,37.71
2023-05-09T14:00:15.885Z,37.92
2023-05-09T14:02:46.768Z,38.00
2023-05-09T14:05:15.516Z,37.41
2023-05-09T14:07:43.971Z,37.36
2023-05-09T14:10:12.773Z,37.49
2023-05-09T14:12:44.322Z,37.57
2023-05-09T14:15:13.521Z,37.72
2023-05-09T14:17:43.634Z,38.10
2023-05-09T14:20:16.452Z,38.16
2023-05-09T14:22:45.123Z,38.19
2023-05-09T14:25:16.409Z,38.13
2023-05-09T14:27:44.498Z,38.22
2023-05-09T14:30:13.729Z,38.33
2023-05-09T14:32:42.404Z,38.39
2023-05-09T14:35:10.970Z,38.36
2023-05-09T14:37:42.739Z,38.71
2023-05-09T14:40:11.569Z,38.38
2023-05-09T14:42:40.205Z,39.09
2023-05-09T14:45:10.884Z,39.62
2023-05-09T14:47:39.359Z,39.70
2023-05-09T14:50:11.014Z,39.60
2023-05-09T14:52:39.248Z,39.38
2023-05-09T14:55:07.688Z,39.22
2023-05-09T14:57:35.796Z,39.32
2023-05-09T15:00:19.743Z,39.08
2023-05-09T15:02:50.711Z,39.40
2023-05-09T15:05:21.310Z,39.44
2023-05-09T15:07:49.624Z,39.64
2023-05-09T15:10:24.037Z,39.86
2023-05-09T15:12:52.949Z,39.80
2023-05-09T15:15:24.280Z,39.50
2023-05-09T15:18:01.158Z,39.69
2023-05-09T15:20:52.265Z,39.94
2023-05-09T15:23:23.344Z,39.71
2023-05-09T15:25:52.804Z,39.98
2023-05-09T15:28:30.722Z,39.75
2023-05-09T15:31:08.516Z,39.75
2023-05-09T15:33:37.139Z,40.09
2023-05-09T15:36:09.884Z,40.45
2023-05-09T15:38:38.250Z,40.84
2023-05-09T15:41:06.418Z,41.68
2023-05-09T15:43:34.900Z,41.68
2023-05-09T15:46:10.688Z,41.73
2023-05-09T15:48:39.353Z,41.60
2023-05-09T15:51:08.899Z,41.49
2023-05-09T15:53:37.461Z,41.64
2023-05-09T15:56:26.492Z,41.43
2023-05-09T15:59:01.559Z,41.52
2023-05-09T16:01:35.168Z,41.66
2023-05-09T16:04:05.686Z,41.28
2023-05-09T16:06:34.365Z,41.15
2023-05-09T16:09:11.762Z,41.41
2023-05-09T16:11:41.381Z,41.28
2023-05-09T16:14:11.716Z,41.51
2023-05-09T16:16:43.954Z,41.35
2023-05-09T16:19:14.264Z,41.44
2023-05-09T16:22:22.904Z,41.82
2023-05-09T16:24:54.346Z,42.41
2023-05-09T16:27:54.259Z,42.56
2023-05-09T16:30:33.637Z,43.22
2023-05-09T16:33:13.092Z,43.57
2023-05-09T16:36:04.072Z,43.81
2023-05-09T16:38:32.396Z,43.99
2023-05-09T16:41:00.475Z,44.17
2023-05-09T16:43:31.256Z,44.45
2023-05-09T16:45:59.712Z,44.72
2023-05-09T16:48:30.440Z,44.88
2023-05-09T16:51:01.301Z,45.27
2023-05-09T16:53:34.883Z,45.40
2023-05-09T16:56:04.790Z,45.53
2023-05-09T16:58:34.077Z,45.52
2023-05-09T17:01:23.597Z,45.62
2023-05-09T17:03:51.967Z,45.76
2023-05-09T17:06:24.007Z,45.99
2023-05-09T17:08:52.812Z,46.52
2023-05-09T17:11:21.695Z,46.53
2023-05-09T17:13:49.768Z,46.37
2023-05-09T17:16:38.481Z,46.53
2023-05-09T17:19:06.896Z,46.63
2023-05-09T17:21:37.891Z,46.48
2023-05-09T17:24:07.044Z,46.63
2023-05-09T17:26:35.446Z,47.03
2023-05-09T17:29:03.813Z,47.54
2023-05-09T17:31:32.436Z,47.93
2023-05-09T17:34:01.585Z,48.36
2023-05-09T17:36:33.638Z,48.58
2023-05-09T17:39:01.970Z,48.19
2023-05-09T17:41:39.930Z,48.53
2023-05-09T17:44:15.988Z,48.76
2023-05-09T17:46:49.665Z,48.88
2023-05-09T17:49:28.379Z,48.83
2023-05-09T17:51:57.067Z,49.18
2023-05-09T17:54:25.781Z,49.04
2023-05-09T17:57:01.253Z,49.26
2023-05-09T17:59:32.246Z,49.35
2023-05-09T18:02:24.075Z,49.46
2023-05-09T18:04:53.901Z,49.52
2023-05-09T18:07:23.024Z,49.89
2023-05-09T18:09:51.243Z,50.11
2023-05-09T18:12:19.453Z,49.99
2023-05-09T18:14:48.347Z,50.28
2023-05-09T18:17:16.628Z,50.40
2023-05-09T18:19:45.182Z,50.79
2023-05-09T18:22:18.827Z,50.65
2023-05-09T18:24:47.504Z,51.07
2023-05-09T18:27:17.114Z,51.14
2023-05-09T18:29:47.523Z,50.93
2023-05-09T18:32:19.415Z,50.97
2023-05-09T18:34:48.658Z,50.97
2023-05-09T18:37:17.247Z,51.01
2023-05-09T18:39:48.338Z,50.88
2023-05-09T18:42:16.783Z,50.91
2023-05-09T18:44:48.208Z,50.95
2023-05-09T18:47:16.892Z,50.95
2023-05-09T18:49:47.837Z,50.96
2023-05-09T18:52:18.929Z,51.21
2023-05-09T18:54:47.496Z,51.28
2023-05-09T18:57:19.681Z,51.29
2023-05-09T18:59:47.726Z,51.45
2023-05-09T19:02:16.844Z,51.38
2023-05-09T19:05:08.066Z,51.51
2023-05-09T19:07:44.008Z,51.69
2023-05-09T19:10:32.435Z,51.71
2023-05-09T19:13:03.348Z,51.79
2023-05-09T19:15:34.579Z,51.80
2023-05-09T19:18:23.212Z,51.84
2023-05-09T19:20:54.071Z,51.86
2023-05-09T19:23:35.250Z,51.97
2023-05-09T19:26:03.778Z,52.01
2023-05-09T19:28:43.154Z,52.08
2023-05-09T19:31:11.679Z,52.22
2023-05-09T19:34:13.685Z,52.25
2023-05-09T19:36:44.647Z,52.29
2023-05-09T19:39:43.642Z,52.15
2023-05-09T19:42:11.998Z,52.15
2023-05-09T19:45:00.767Z,52.15
2023-05-09T19:47:31.754Z,52.04
2023-05-09T19:50:02.543Z,52.14
2023-05-09T19:52:46.689Z,51.96
2023-05-09T19:55:17.536Z,51.91
2023-05-09T19:57:45.684Z,52.00
2023-05-09T20:00:14.803Z,51.79
2023-05-09T20:02:43.054Z,52.02
2023-05-09T20:05:31.632Z,52.01
2023-05-09T20:08:00.525Z,52.07
2023-05-09T20:10:34.322Z,52.05
2023-05-09T20:13:04.461Z,52.00
2023-05-09T20:16:02.226Z,51.99
2023-05-09T20:18:42.948Z,52.00
2023-05-09T20:21:11.371Z,51.92
2023-05-09T20:23:59.775Z,52.07
2023-05-09T20:26:45.424Z,52.02
2023-05-09T20:29:16.436Z,51.96
2023-05-09T20:32:29.481Z,52.06
2023-05-09T20:34:57.838Z,52.19
2023-05-09T20:37:26.020Z,52.44
2023-05-09T20:39:54.192Z,52.67
2023-05-09T20:42:25.846Z,53.22
2023-05-09T20:45:14.392Z,53.55
2023-05-09T20:47:59.535Z,54.06
2023-05-09T20:50:47.996Z,53.74
2023-05-09T20:53:37.808Z,53.79
2023-05-09T20:56:32.109Z,54.09
2023-05-09T20:59:01.190Z,54.33
2023-05-09T21:01:51.098Z,54.59
2023-05-09T21:04:58.554Z,54.71
2023-05-09T21:07:27.003Z,54.80
2023-05-09T21:10:18.562Z,55.18
2023-05-09T21:12:47.142Z,55.33
2023-05-09T21:15:15.338Z,55.52
2023-05-09T21:17:52.316Z,55.46
2023-05-09T21:20:23.736Z,55.85
2023-05-09T21:22:52.438Z,56.03
2023-05-09T21:25:41.010Z,56.17
2023-05-09T21:28:09.494Z,56.31
2023-05-09T21:30:40.641Z,56.41
2023-05-09T21:33:09.060Z,57.18
2023-05-09T21:35:37.155Z,57.84
2023-05-09T21:38:05.451Z,58.21
2023-05-09T21:40:33.520Z,57.89
2023-05-09T21:43:02.425Z,57.80
2023-05-09T21:45:33.742Z,58.50
2023-05-09T21:48:02.171Z,58.93
2023-05-09T21:50:30.741Z,59.09
2023-05-09T21:52:58.935Z,59.36
2023-05-09T21:55:47.551Z,59.52
2023-05-09T21:58:18.996Z,60.04
2023-05-09T22:01:07.440Z,60.48
2023-05-09T22:03:45.657Z,60.46
2023-05-09T22:06:14.029Z,60.53
2023-05-09T22:08:42.153Z,60.89
2023-05-09T22:11:10.994Z,61.22
2023-05-09T22:13:40.951Z,61.44
2023-05-09T22:16:09.300Z,61.05
2023-05-09T22:18:37.688Z,60.74
2023-05-09T22:21:08.808Z,59.62
2023-05-09T22:23:39.972Z,59.49
2023-05-09T22:26:08.137Z,59.14
2023-05-09T22:28:39.786Z,59.16
2023-05-09T22:31:19.090Z,59.17
2023-05-09T22:33:57.432Z,59.09
2023-05-09T22:36:29.298Z,59.42
2023-05-09T22:39:28.495Z,59.52
2023-05-09T22:42:00.090Z,59.30
2023-05-09T22:44:32.901Z,59.39
2023-05-09T22:47:01.084Z,59.28
2023-05-09T22:49:29.295Z,59.77
2023-05-09T22:52:17.803Z,59.62
2023-05-09T22:55:03.500Z,59.52
2023-05-09T22:57:37.338Z,59.57
2023-05-09T23:00:06.811Z,59.68
2023-05-09T23:02:35.169Z,59.54
2023-05-09T23:05:03.892Z,59.84
2023-05-09T23:07:35.453Z,59.85
2023-05-09T23:10:14.295Z,59.97
2023-05-09T23:12:42.787Z,60.05
2023-05-09T23:15:13.696Z,60.06
2023-05-09T23:17:47.022Z,60.06
2023-05-09T23:20:16.065Z,59.96
2023-05-09T23:22:46.819Z,60.29
2023-05-09T23:25:17.818Z,59.98
2023-05-09T23:27:48.820Z,60.43
2023-05-09T23:30:17.747Z,60.30
2023-05-09T23:33:06.315Z,59.93
2023-05-09T23:35:43.773Z,59.92
2023-05-09T23:38:11.968Z,60.23
2023-05-09T23:41:09.791Z,60.31
2023-05-09T23:43:38.370Z,60.41
2023-05-09T23:46:06.746Z,60.18
2023-05-09T23:48:45.360Z,60.29
2023-05-09T23:51:13.892Z,60.31
2023-05-09T23:53:47.554Z,60.41
2023-05-09T23:56:19.000Z,60.29
2023-05-09T23:58:47.281Z,60.69
